createdAt,value
2023-03-15T00:00:49.226Z,98427.22
2023-03-15T00:03:16.968Z,98432.13
2023-03-15T00:05:45.308Z,98434.84
2023-03-15T00:08:12.966Z,98435.12
2023-03-15T00:10:46.636Z,98443.31
2023-03-15T00:13:14.544Z,98446.56
2023-03-15T00:15:47.029Z,98450.41
2023-03-15T00:18:14.555Z,98446.84
2023-03-15T00:20:42.352Z,98460.50
2023-03-15T00:23:09.893Z,98454.47
2023-03-15T00:25:37.407Z,98465.38
2023-03-15T00:28:05.563Z,98463.75
2023-03-15T00:30:33.124Z,98467.56
2023-03-15T00:33:00.591Z,98457.72
2023-03-15T00:35:28.489Z,98465.91
2023-03-15T00:37:56.486Z,98457.16
2023-03-15T00:40:24.323Z,98457.44
2023-03-15T00:42:52.331Z,98459.34
2023-03-15T00:45:20.623Z,98445.16
2023-03-15T00:47:54.402Z,98437.78
2023-03-15T00:50:22.557Z,98420.88
2023-03-15T00:52:50.085Z,98429.06
2023-03-15T00:55:18.704Z,98414.63
2023-03-15T00:57:48.596Z,98419.25
2023-03-15T01:00:25.396Z,98419.50
2023-03-15T01:02:55.062Z,98422.22
2023-03-15T01:05:22.758Z,98427.12
2023-03-15T01:07:50.244Z,98429.88
2023-03-15T01:10:18.272Z,98450.03
2023-03-15T01:12:45.787Z,98442.12
2023-03-15T01:15:14.261Z,98441.03
2023-03-15T01:17:42.165Z,98433.13
2023-03-15T01:20:12.057Z,98435.03
2023-03-15T01:22:39.564Z,98428.75
2023-03-15T01:25:09.384Z,98428.22
2023-03-15T01:27:36.905Z,98430.94
2023-03-15T01:30:04.841Z,98435.81
2023-03-15T01:32:33.446Z,98433.09
2023-03-15T01:35:00.918Z,98426.81
2023-03-15T01:37:28.669Z,98436.91
2023-03-15T01:39:56.463Z,98428.16
2023-03-15T01:42:23.902Z,98428.44
2023-03-15T01:44:54.501Z,98437.72
2023-03-15T01:47:25.953Z,98447.81
2023-03-15T01:49:57.885Z,98438.81
2023-03-15T01:52:29.096Z,98436.31
2023-03-15T01:55:05.511Z,98443.44
2023-03-15T01:57:37.024Z,98440.97
2023-03-15T02:00:12.221Z,98445.84
2023-03-15T02:03:01.089Z,98449.66
2023-03-15T02:05:34.819Z,98440.16
2023-03-15T02:08:02.961Z,98443.94
2023-03-15T02:10:35.458Z,98436.03
2023-03-15T02:13:03.279Z,98440.63
2023-03-15T02:15:31.251Z,98442.53
2023-03-15T02:17:59.146Z,98444.22
2023-03-15T02:20:52.028Z,98452.63
2023-03-15T02:23:21.090Z,98451.81
2023-03-15T02:25:57.619Z,98446.63
2023-03-15T02:28:27.561Z,98443.09
2023-03-15T02:30:54.991Z,98443.09
2023-03-15T02:33:36.629Z,98444.16
2023-03-15T02:36:12.353Z,98445.25
2023-03-15T02:38:39.809Z,98450.44
2023-03-15T02:41:07.521Z,98445.53
2023-03-15T02:43:34.953Z,98442.78
2023-03-15T02:46:02.446Z,98440.88
2023-03-15T02:48:31.666Z,98449.88
2023-03-15T02:50:59.106Z,98456.41
2023-03-15T02:53:26.592Z,98454.78
2023-03-15T02:55:54.338Z,98448.53
2023-03-15T02:58:21.779Z,98454.78
2023-03-15T03:00:49.323Z,98446.84
2023-03-15T03:03:19.172Z,98454.22
2023-03-15T03:05:46.700Z,98442.22
2023-03-15T03:08:16.476Z,98442.50
2023-03-15T03:10:44.449Z,98448.22
2023-03-15T03:13:12.089Z,98448.22
2023-03-15T03:15:39.874Z,98444.91
2023-03-15T03:18:07.577Z,98441.13
2023-03-15T03:20:35.022Z,98446.59
2023-03-15T03:23:06.213Z,98438.66
2023-03-15T03:25:33.941Z,98437.84
2023-03-15T03:28:03.962Z,98446.00
2023-03-15T03:30:31.674Z,98442.47
2023-03-15T03:32:59.556Z,98438.09
2023-03-15T03:35:27.200Z,98439.19
2023-03-15T03:37:55.727Z,98437.28
2023-03-15T03:40:23.568Z,98424.75
2023-03-15T03:42:51.121Z,98429.94
2023-03-15T03:45:18.854Z,98430.22
2023-03-15T03:47:48.017Z,98425.00
2023-03-15T03:50:15.842Z,98428.81
2023-03-15T03:52:43.936Z,98423.37
2023-03-15T03:55:14.763Z,98415.47
2023-03-15T03:57:42.641Z,98430.72
2023-03-15T04:00:14.292Z,98419.25
2023-03-15T04:02:42.860Z,98438.31
2023-03-15T04:05:11.827Z,98435.59
2023-03-15T04:07:39.704Z,98438.31
2023-03-15T04:10:07.840Z,98442.41
2023-03-15T04:12:36.125Z,98462.59
2023-03-15T04:15:04.514Z,98468.03
2023-03-15T04:17:32.577Z,98485.44
2023-03-15T04:20:02.048Z,98489.00
2023-03-15T04:22:30.195Z,98492.78
2023-03-15T04:24:57.789Z,98490.97
2023-03-15T04:27:25.502Z,98498.81
2023-03-15T04:29:53.397Z,98499.34
2023-03-15T04:32:21.246Z,98509.69
2023-03-15T04:34:51.531Z,98511.59
2023-03-15T04:37:19.707Z,98516.19
2023-03-15T04:39:48.053Z,98527.09
2023-03-15T04:42:16.267Z,98521.09
2023-03-15T04:44:43.942Z,98525.47
2023-03-15T04:47:12.450Z,98523.81
2023-03-15T04:49:40.648Z,98537.44
2023-03-15T04:52:08.650Z,98549.97
2023-03-15T04:54:39.342Z,98553.78
2023-03-15T04:57:08.684Z,98564.69
2023-03-15T04:59:36.345Z,98564.16
2023-03-15T05:02:04.985Z,98575.84
2023-03-15T05:04:33.379Z,98575.84
2023-03-15T05:07:01.104Z,98567.69
2023-03-15T05:09:29.451Z,98577.75
2023-03-15T05:11:57.564Z,98571.22
2023-03-15T05:14:28.006Z,98563.06
2023-03-15T05:16:58.489Z,98555.13
2023-03-15T05:19:27.283Z,98557.03
2023-03-15T05:21:55.654Z,98566.88
2023-03-15T05:24:23.559Z,98566.88
2023-03-15T05:26:54.268Z,98576.91
2023-03-15T05:29:22.774Z,98567.91
2023-03-15T05:31:52.321Z,98570.66
2023-03-15T05:34:20.005Z,98558.13
2023-03-15T05:36:47.710Z,98570.66
2023-03-15T05:39:16.809Z,98571.75
2023-03-15T05:41:44.638Z,98570.09
2023-03-15T05:44:15.403Z,98569.00
2023-03-15T05:46:43.254Z,98559.19
2023-03-15T05:49:10.870Z,98558.38
2023-03-15T05:51:38.797Z,98558.38
2023-03-15T05:54:07.169Z,98556.47
2023-03-15T05:56:53.489Z,98563.25
2023-03-15T05:59:21.837Z,98569.78
2023-03-15T06:01:49.455Z,98572.50
2023-03-15T06:04:17.711Z,98561.63
2023-03-15T06:06:45.402Z,98569.78
2023-03-15T06:09:13.013Z,98568.97
2023-03-15T06:11:41.049Z,98571.69
2023-03-15T06:14:10.625Z,98568.16
2023-03-15T06:16:38.392Z,98561.63
2023-03-15T06:19:07.596Z,98559.16
2023-03-15T06:21:35.095Z,98574.69
2023-03-15T06:24:04.054Z,98580.12
2023-03-15T06:26:31.784Z,98573.88
2023-03-15T06:28:59.381Z,98576.31
2023-03-15T06:31:26.961Z,98575.50
2023-03-15T06:33:55.051Z,98575.75
2023-03-15T06:36:23.338Z,98581.19
2023-03-15T06:38:51.124Z,98589.63
2023-03-15T06:41:18.819Z,98586.91
2023-03-15T06:43:46.368Z,98568.94
2023-03-15T06:46:14.112Z,98575.19
2023-03-15T06:48:41.912Z,98575.19
2023-03-15T06:51:09.607Z,98572.47
2023-03-15T06:53:37.085Z,98585.28
2023-03-15T06:56:05.115Z,98594.53
2023-03-15T06:58:32.561Z,98604.59
2023-03-15T07:01:00.057Z,98612.78
2023-03-15T07:03:27.825Z,98614.69
2023-03-15T07:05:55.276Z,98613.84
2023-03-15T07:08:23.004Z,98613.59
2023-03-15T07:10:50.858Z,98613.03
2023-03-15T07:13:18.749Z,98607.56
2023-03-15T07:15:47.828Z,98620.38
2023-03-15T07:18:15.558Z,98625.00
2023-03-15T07:20:42.970Z,98627.72
2023-03-15T07:23:10.373Z,98625.00
2023-03-15T07:25:53.956Z,98643.25
2023-03-15T07:28:22.567Z,98646.25
2023-03-15T07:31:00.805Z,98644.34
2023-03-15T07:33:29.332Z,98649.50
2023-03-15T07:35:57.177Z,98650.88
2023-03-15T07:38:26.058Z,98654.41
2023-03-15T07:40:53.483Z,98650.03
2023-03-15T07:43:21.429Z,98660.91
2023-03-15T07:45:49.747Z,98652.75
2023-03-15T07:48:17.293Z,98666.34
2023-03-15T07:50:45.610Z,98667.44
2023-03-15T07:53:13.109Z,98668.25
2023-03-15T07:55:40.702Z,98674.53
2023-03-15T07:58:08.498Z,98656.56
2023-03-15T08:00:36.039Z,98672.66
2023-03-15T08:03:04.381Z,98669.09
2023-03-15T08:05:32.064Z,98677.25
2023-03-15T08:07:59.547Z,98684.38
2023-03-15T08:10:27.422Z,98678.94
2023-03-15T08:12:54.869Z,98686.00
2023-03-15T08:15:22.292Z,98677.25
2023-03-15T08:17:50.317Z,98679.97
2023-03-15T08:20:18.376Z,98680.81
2023-03-15T08:22:47.171Z,98695.28
2023-03-15T08:25:17.425Z,98684.38
2023-03-15T08:27:44.924Z,98676.75
2023-03-15T08:30:13.289Z,98672.94
2023-03-15T08:32:41.868Z,98682.19
2023-03-15T08:35:09.602Z,98692.00
2023-03-15T08:37:37.089Z,98694.75
2023-03-15T08:40:10.858Z,98686.56
2023-03-15T08:42:38.312Z,98693.91
2023-03-15T08:45:07.153Z,98698.28
2023-03-15T08:47:37.994Z,98701.84
2023-03-15T08:50:07.533Z,98709.19
2023-03-15T08:52:35.122Z,98713.81
2023-03-15T08:55:04.821Z,98728.81
2023-03-15T08:57:33.318Z,98729.09
2023-03-15T09:00:01.786Z,98733.47
2023-03-15T09:02:29.314Z,98729.09
2023-03-15T09:04:57.034Z,98755.47
2023-03-15T09:07:24.444Z,98758.22
2023-03-15T09:09:54.318Z,98764.50
2023-03-15T09:12:22.116Z,98768.88
2023-03-15T09:14:49.646Z,98774.56
2023-03-15T09:17:17.065Z,98777.03
2023-03-15T09:19:44.784Z,98775.13
2023-03-15T09:22:17.251Z,98775.97
2023-03-15T09:24:52.677Z,98774.06
2023-03-15T09:27:20.194Z,98784.69
2023-03-15T09:29:47.647Z,98783.88
2023-03-15T09:32:15.359Z,98790.97
2023-03-15T09:34:42.882Z,98806.25
2023-03-15T09:37:10.676Z,98801.84
2023-03-15T09:39:38.459Z,98814.16
2023-03-15T09:42:42.149Z,98809.78
2023-03-15T09:45:24.494Z,98822.34
2023-03-15T09:48:00.589Z,98817.38
2023-03-15T09:50:33.226Z,98816.44
2023-03-15T09:53:03.177Z,98819.03
2023-03-15T09:55:30.930Z,98809.00
2023-03-15T09:58:01.878Z,98801.53
2023-03-15T10:00:48.963Z,98808.88
2023-03-15T10:03:47.467Z,98812.00
2023-03-15T10:06:20.119Z,98811.31
2023-03-15T10:08:47.871Z,98814.78
2023-03-15T10:11:39.871Z,98822.34
2023-03-15T10:15:00.295Z,98827.19
2023-03-15T10:17:46.100Z,98813.78
2023-03-15T10:20:21.871Z,98817.69
2023-03-15T10:22:58.868Z,98817.00
2023-03-15T10:25:29.874Z,98827.69
2023-03-15T10:28:21.741Z,98825.84
2023-03-15T10:30:49.922Z,98831.66
2023-03-15T10:33:36.733Z,98838.50
2023-03-15T10:36:16.369Z,98841.59
2023-03-15T10:38:44.695Z,98841.34
2023-03-15T10:41:17.861Z,98837.00
2023-03-15T10:43:58.297Z,98837.56
2023-03-15T10:46:26.162Z,98851.25
2023-03-15T10:48:59.312Z,98853.75
2023-03-15T10:51:31.461Z,98854.25
2023-03-15T10:54:01.461Z,98860.25
2023-03-15T10:56:30.986Z,98865.97
2023-03-15T10:59:11.901Z,98869.22
2023-03-15T11:01:40.699Z,98870.88
2023-03-15T11:04:18.711Z,98872.22
2023-03-15T11:07:07.843Z,98875.22
2023-03-15T11:09:42.811Z,98880.91
2023-03-15T11:12:17.682Z,98876.22
2023-03-15T11:14:48.034Z,98893.66
2023-03-15T11:17:27.263Z,98882.22
2023-03-15T11:19:59.982Z,98880.56
2023-03-15T11:22:27.748Z,98894.72
2023-03-15T11:24:55.349Z,98885.12
2023-03-15T11:27:23.552Z,98886.22
2023-03-15T11:29:59.868Z,98885.88
2023-03-15T11:32:29.225Z,98889.69
2023-03-15T11:35:17.970Z,98878.47
2023-03-15T11:38:03.206Z,98893.53
2023-03-15T11:40:34.890Z,98892.38
2023-03-15T11:43:02.222Z,98888.50
2023-03-15T11:45:51.043Z,98890.69
2023-03-15T11:48:39.452Z,98887.63
2023-03-15T11:51:07.547Z,98884.91
2023-03-15T11:53:37.426Z,98902.59
2023-03-15T11:56:24.830Z,98896.03
2023-03-15T11:59:07.230Z,98895.75
2023-03-15T12:01:35.017Z,98900.88
2023-03-15T12:04:24.270Z,98917.16
2023-03-15T12:06:58.878Z,98901.63
2023-03-15T12:09:32.587Z,98915.50
2023-03-15T12:12:00.852Z,98911.37
2023-03-15T12:14:32.557Z,98915.44
2023-03-15T12:17:28.808Z,98919.22
2023-03-15T12:20:00.776Z,98919.81
2023-03-15T12:22:31.609Z,98913.22
2023-03-15T12:25:13.153Z,98914.53
2023-03-15T12:27:46.124Z,98909.34
2023-03-15T12:30:20.790Z,98924.06
2023-03-15T12:32:51.056Z,98919.44
2023-03-15T12:35:20.171Z,98908.19
2023-03-15T12:37:48.259Z,98908.19
2023-03-15T12:40:15.556Z,98909.28
2023-03-15T12:42:43.152Z,98915.81
2023-03-15T12:45:16.871Z,98923.41
2023-03-15T12:47:53.712Z,98922.84
2023-03-15T12:50:43.641Z,98924.75
2023-03-15T12:53:29.569Z,98922.84
2023-03-15T12:56:13.049Z,98933.75
2023-03-15T12:58:41.192Z,98930.69
2023-03-15T13:01:10.013Z,98941.37
2023-03-15T13:03:38.659Z,98935.91
2023-03-15T13:06:30.376Z,98934.84
2023-03-15T13:09:26.991Z,98935.38
2023-03-15T13:12:00.072Z,98946.56
2023-03-15T13:14:45.898Z,98955.00
2023-03-15T13:17:41.564Z,98957.19
2023-03-15T13:20:21.015Z,98955.56
2023-03-15T13:22:55.404Z,98968.09
2023-03-15T13:25:31.040Z,98976.53
2023-03-15T13:28:06.839Z,98975.44
2023-03-15T13:30:37.228Z,98975.44
2023-03-15T13:33:26.530Z,98978.44
2023-03-15T13:36:15.128Z,98982.31
2023-03-15T13:38:44.832Z,98986.94
2023-03-15T13:41:31.022Z,98990.97
2023-03-15T13:44:00.954Z,98990.50
2023-03-15T13:46:30.675Z,98983.62
2023-03-15T13:48:58.164Z,99001.63
2023-03-15T13:51:32.166Z,98999.72
2023-03-15T13:54:11.535Z,98995.59
2023-03-15T13:56:59.620Z,99010.06
2023-03-15T13:59:44.705Z,99015.25
2023-03-15T14:02:21.186Z,99019.53
2023-03-15T14:04:52.324Z,99013.53
2023-03-15T14:07:25.664Z,99023.88
2023-03-15T14:10:19.113Z,99008.34
2023-03-15T14:12:46.670Z,99020.63
2023-03-15T14:15:37.126Z,99031.19
2023-03-15T14:18:07.350Z,99032.87
2023-03-15T14:21:00.060Z,99028.66
2023-03-15T14:23:28.650Z,99030.97
2023-03-15T14:26:22.921Z,99048.28
2023-03-15T14:29:02.536Z,99039.06
2023-03-15T14:31:32.717Z,99029.72
2023-03-15T14:34:25.878Z,99056.97
2023-03-15T14:36:57.783Z,99054.00
2023-03-15T14:39:28.318Z,99062.66
2023-03-15T14:41:56.293Z,99057.47
2023-03-15T14:44:24.152Z,99052.00
2023-03-15T14:46:51.739Z,99063.16
2023-03-15T14:49:24.287Z,99055.22
2023-03-15T14:51:59.069Z,99070.75
2023-03-15T14:54:28.628Z,99073.72
2023-03-15T14:56:56.392Z,99066.38
2023-03-15T14:59:23.924Z,99077.28
2023-03-15T15:01:53.740Z,99081.06
2023-03-15T15:04:21.553Z,99077.78
2023-03-15T15:06:52.722Z,99081.34
2023-03-15T15:09:25.031Z,99086.19
2023-03-15T15:11:52.631Z,99094.34
2023-03-15T15:14:21.956Z,99100.06
2023-03-15T15:16:49.563Z,99103.88
2023-03-15T15:19:17.306Z,99108.50
2023-03-15T15:21:45.089Z,99112.25
2023-03-15T15:24:16.714Z,99116.87
2023-03-15T15:26:44.360Z,99113.59
2023-03-15T15:29:14.159Z,99126.38
2023-03-15T15:31:42.317Z,99121.16
2023-03-15T15:34:09.989Z,99129.12
2023-03-15T15:36:43.989Z,99124.72
2023-03-15T15:39:27.863Z,99136.69
2023-03-15T15:41:56.407Z,99146.50
2023-03-15T15:44:26.198Z,99145.94
2023-03-15T15:46:54.116Z,99145.94
2023-03-15T15:49:21.875Z,99148.66
2023-03-15T15:51:49.960Z,99147.00
2023-03-15T15:54:23.015Z,99158.97
2023-03-15T15:57:00.645Z,99155.66
2023-03-15T15:59:28.816Z,99163.56
2023-03-15T16:02:02.573Z,99163.00
2023-03-15T16:04:33.100Z,99173.34
2023-03-15T16:07:05.034Z,99171.63
2023-03-15T16:09:35.869Z,99173.53
2023-03-15T16:12:11.457Z,99171.06
2023-03-15T16:14:39.209Z,99187.13
2023-03-15T16:17:15.541Z,99190.12
2023-03-15T16:19:47.248Z,99190.38
2023-03-15T16:22:15.456Z,99198.53
2023-03-15T16:24:55.088Z,99199.59
2023-03-15T16:27:25.171Z,99212.72
2023-03-15T16:29:57.598Z,99209.56
2023-03-15T16:32:40.914Z,99209.06
2023-03-15T16:35:16.130Z,99210.22
2023-03-15T16:37:44.298Z,99215.13
2023-03-15T16:40:30.089Z,99219.72
2023-03-15T16:42:58.850Z,99213.97
2023-03-15T16:45:27.964Z,99217.72
2023-03-15T16:47:56.973Z,99220.59
2023-03-15T16:50:25.236Z,99217.25
2023-03-15T16:52:55.150Z,99227.50
2023-03-15T16:55:27.055Z,99231.25
2023-03-15T16:57:56.269Z,99242.47
2023-03-15T17:00:25.893Z,99244.72
2023-03-15T17:02:55.261Z,99250.81
2023-03-15T17:05:24.957Z,99253.94
2023-03-15T17:07:53.784Z,99258.50
2023-03-15T17:10:29.866Z,99260.25
2023-03-15T17:13:04.929Z,99263.88
2023-03-15T17:15:34.048Z,99266.19
2023-03-15T17:18:03.853Z,99275.81
2023-03-15T17:20:34.109Z,99269.09
2023-03-15T17:23:06.347Z,99280.41
2023-03-15T17:25:35.044Z,99277.75
2023-03-15T17:28:05.275Z,99286.56
2023-03-15T17:30:35.359Z,99289.72
2023-03-15T17:33:05.875Z,99287.06
2023-03-15T17:35:39.261Z,99280.81
2023-03-15T17:38:16.274Z,99283.09
2023-03-15T17:40:45.216Z,99300.97
2023-03-15T17:43:16.135Z,99302.69
2023-03-15T17:45:45.186Z,99314.50
2023-03-15T17:48:14.451Z,99318.97
2023-03-15T17:50:43.221Z,99319.84
2023-03-15T17:53:17.127Z,99339.03
2023-03-15T17:55:48.400Z,99338.25
2023-03-15T17:58:23.952Z,99338.59
2023-03-15T18:00:55.053Z,99352.56
2023-03-15T18:03:24.462Z,99353.97
2023-03-15T18:05:53.411Z,99353.47
2023-03-15T18:08:25.294Z,99348.84
2023-03-15T18:10:57.381Z,99357.59
2023-03-15T18:13:26.888Z,99358.41
2023-03-15T18:15:55.071Z,99360.34
2023-03-15T18:18:27.242Z,99366.63
2023-03-15T18:20:58.246Z,99370.72
2023-03-15T18:23:28.531Z,99369.03
2023-03-15T18:25:57.441Z,99375.03
2023-03-15T18:28:26.795Z,99380.78
2023-03-15T18:30:55.950Z,99386.72
2023-03-15T18:33:24.965Z,99385.31
2023-03-15T18:35:55.471Z,99392.97
2023-03-15T18:38:26.658Z,99388.25
2023-03-15T18:40:56.564Z,99398.87
2023-03-15T18:43:25.593Z,99394.50
2023-03-15T18:45:54.731Z,99403.19
2023-03-15T18:48:40.782Z,99399.09
2023-03-15T18:51:12.722Z,99399.59
2023-03-15T18:53:44.125Z,99405.00
2023-03-15T18:56:20.950Z,99406.56
2023-03-15T18:58:51.402Z,99403.28
2023-03-15T19:01:33.157Z,99405.94
2023-03-15T19:04:02.432Z,99406.72
2023-03-15T19:06:32.370Z,99414.31
2023-03-15T19:09:00.866Z,99418.62
2023-03-15T19:11:33.019Z,99422.84
2023-03-15T19:14:10.045Z,99424.63
2023-03-15T19:16:43.333Z,99427.53
2023-03-15T19:19:16.339Z,99432.44
2023-03-15T19:21:45.875Z,99434.34
2023-03-15T19:24:16.416Z,99430.41
2023-03-15T19:26:45.895Z,99429.00
2023-03-15T19:29:16.058Z,99440.44
2023-03-15T19:31:47.763Z,99442.56
2023-03-15T19:34:17.820Z,99448.53
2023-03-15T19:36:47.717Z,99445.50
2023-03-15T19:39:17.272Z,99455.84
2023-03-15T19:41:49.033Z,99460.72
2023-03-15T19:44:18.600Z,99456.56
2023-03-15T19:46:47.529Z,99472.63
2023-03-15T19:49:18.137Z,99474.22
2023-03-15T19:51:47.772Z,99476.13
2023-03-15T19:54:18.884Z,99483.16
2023-03-15T19:56:49.341Z,99479.50
2023-03-15T19:59:18.261Z,99490.69
2023-03-15T20:01:48.440Z,99487.28
2023-03-15T20:04:19.611Z,99492.25
2023-03-15T20:06:49.110Z,99491.06
2023-03-15T20:09:19.734Z,99495.97
2023-03-15T20:11:49.038Z,99500.00
2023-03-15T20:14:21.316Z,99497.78
2023-03-15T20:16:50.725Z,99499.69
2023-03-15T20:19:20.627Z,99507.88
2023-03-15T20:21:49.483Z,99514.38
2023-03-15T20:24:19.074Z,99519.38
2023-03-15T20:26:49.698Z,99517.56
2023-03-15T20:29:19.017Z,99524.22
2023-03-15T20:31:54.271Z,99523.97
2023-03-15T20:34:23.671Z,99519.41
2023-03-15T20:36:58.005Z,99523.16
2023-03-15T20:39:26.879Z,99515.56
2023-03-15T20:41:56.472Z,99517.22
2023-03-15T20:44:27.834Z,99518.38
2023-03-15T20:47:00.924Z,99517.94
2023-03-15T20:49:31.181Z,99523.81
2023-03-15T20:52:02.202Z,99520.25
2023-03-15T20:54:32.900Z,99522.44
2023-03-15T20:57:03.701Z,99522.25
2023-03-15T20:59:34.293Z,99517.44
2023-03-15T21:02:04.300Z,99525.44
2023-03-15T21:04:33.765Z,99522.78
2023-03-15T21:07:04.862Z,99520.13
2023-03-15T21:09:32.338Z,99523.09
2023-03-15T21:12:02.465Z,99517.09
2023-03-15T21:14:33.450Z,99524.09
2023-03-15T21:17:02.323Z,99519.13
2023-03-15T21:19:32.191Z,99519.94
2023-03-15T21:22:01.243Z,99521.59
2023-03-15T21:24:31.198Z,99528.97
2023-03-15T21:26:59.543Z,99517.44
2023-03-15T21:29:31.082Z,99514.72
2023-03-15T21:31:59.441Z,99518.53
2023-03-15T21:34:27.270Z,99519.88
2023-03-15T21:36:55.906Z,99529.13
2023-03-15T21:39:24.610Z,99528.84
2023-03-15T21:41:53.205Z,99531.00
2023-03-15T21:44:21.465Z,99535.91
2023-03-15T21:46:49.708Z,99528.19
2023-03-15T21:49:18.144Z,99530.34
2023-03-15T21:51:46.188Z,99534.66
2023-03-15T21:54:13.934Z,99528.03
2023-03-15T21:56:42.250Z,99539.47
2023-03-15T21:59:10.674Z,99535.56
2023-03-15T22:01:38.701Z,99531.72
2023-03-15T22:04:07.076Z,99536.84
2023-03-15T22:06:34.527Z,99531.88
2023-03-15T22:09:01.936Z,99537.81
2023-03-15T22:11:29.667Z,99532.06
2023-03-15T22:13:57.107Z,99543.47
2023-03-15T22:16:24.566Z,99536.59
2023-03-15T22:18:52.289Z,99543.66
2023-03-15T22:21:19.808Z,99535.69
2023-03-15T22:23:47.431Z,99546.03
2023-03-15T22:26:15.379Z,99535.56
2023-03-15T22:28:42.793Z,99538.22
2023-03-15T22:31:12.448Z,99539.31
2023-03-15T22:33:40.038Z,99544.44
2023-03-15T22:36:07.790Z,99541.03
2023-03-15T22:38:37.953Z,99562.16
2023-03-15T22:41:09.202Z,99559.31
2023-03-15T22:43:37.077Z,99562.56
2023-03-15T22:46:04.786Z,99563.03
2023-03-15T22:48:33.277Z,99565.19
2023-03-15T22:51:07.074Z,99562.94
2023-03-15T22:53:34.800Z,99565.09
2023-03-15T22:56:03.721Z,99561.19
2023-03-15T22:58:31.190Z,99567.75
2023-03-15T23:00:59.521Z,99579.16
2023-03-15T23:03:26.971Z,99572.25
2023-03-15T23:05:54.821Z,99573.59
2023-03-15T23:08:23.029Z,99581.19
2023-03-15T23:10:50.549Z,99578.97
2023-03-15T23:13:18.297Z,99577.53
2023-03-15T23:15:46.327Z,99584.06
2023-03-15T23:18:14.736Z,99583.47
2023-03-15T23:20:42.312Z,99589.19
2023-03-15T23:23:10.059Z,99597.63
2023-03-15T23:25:38.944Z,99592.66
2023-03-15T23:28:07.059Z,99601.91
2023-03-15T23:30:36.218Z,99606.81
2023-03-15T23:33:04.175Z,99608.06
2023-03-15T23:35:31.898Z,99607.25
2023-03-15T23:37:59.755Z,99604.97
2023-03-15T23:40:27.489Z,99604.16
2023-03-15T23:42:59.324Z,99607.38
2023-03-15T23:45:29.500Z,99612.81
2023-03-15T23:47:57.153Z,99620.19
2023-03-15T23:50:26.338Z,99608.44
2023-03-15T23:52:55.430Z,99614.41
2023-03-15T23:55:23.495Z,99618.19
2023-03-15T23:57:51.119Z,99622.81
